Flight Track Log - Related Links

Times and Time Zones

All times are in EDT time to prevent confusion due to time zone crossing. See the UAL335 flight status page for this flight to view local times or setup timezone preferences in your user account.

Time Position Orientation Groundspeed Altitude Reporting Facility
EDT Latitude Longitude Course Direction KTS MPH feet Rate Location/Type
Sun 04:25:05 PM 27.9500 -82.5500 180° South 162 186 1,300  Level Tampa TRACON
Sun 04:26:05 PM 27.9000 -82.5667 196° South 221 254 2,800 2,350 Climbing Tampa TRACON
Sun 04:27:00 PM 28.3103 -82.5667 North  Level FlightAware Approximate
Sun 04:27:05 PM 27.8833 -82.6333 254° West 244 281 6,000  Level Tampa TRACON
Sun 04:28:00 PM 28.4267 -82.5710 355° North  Level FlightAware Approximate
Sun 04:28:05 PM 27.9500 -82.6500 348° North 283 326 7,900  Level Tampa TRACON
Sun 04:29:00 PM 28.5428 -82.5826 355° North  Level FlightAware Approximate
Sun 04:29:05 PM 28.0333 -82.6333 10° North 302 348 10,800  Level Tampa TRACON
Sun 04:30:16 PM 28.1414 -82.6147 North 350 403 12,300 1,924 Climbing Jacksonville Center
Sun 04:31:16 PM 28.2478 -82.5981 North 370 426 15,000 2,450 Climbing Jacksonville Center
Sun 04:32:16 PM 28.3519 -82.5814 North 375 432 17,200 2,150 Climbing Jacksonville Center
Sun 04:33:16 PM 28.4647 -82.5856 358° North 380 437 19,300 1,850 Climbing Jacksonville Center
Sun 04:34:16 PM 28.5753 -82.5878 359° North 391 450 20,900 1,750 Climbing Jacksonville Center
Sun 04:35:16 PM 28.6922 -82.5919 358° North 405 466 22,800 1,600 Climbing Jacksonville Center
Sun 04:36:16 PM 28.8092 -82.6058 354° North 405 466 24,100 1,350 Climbing Jacksonville Center
Sun 04:37:16 PM 28.9281 -82.6244 352° North 422 486 25,500 900 Climbing Jacksonville Center
Sun 04:38:16 PM 29.0492 -82.6408 353° North 427 491 25,900 800 Climbing Jacksonville Center
Sun 04:39:16 PM 29.1725 -82.6572 353° North 432 497 27,100 1,100 Climbing Jacksonville Center
Sun 04:40:16 PM 29.2975 -82.6758 353° North 437 503 28,100 1,000 Climbing Jacksonville Center
Sun 04:41:16 PM 29.4250 -82.6922 354° North 447 514 29,100 1,150 Climbing Jacksonville Center
Sun 04:42:16 PM 29.5608 -82.6944 359° North 458 527 30,400 1,200 Climbing Jacksonville Center
Sun 04:43:16 PM 29.6922 -82.6942 360° North 472 543 31,500 1,400 Climbing Jacksonville Center
Sun 04:44:16 PM 29.8217 -82.6914 North 472 543 33,200 1,300 Climbing Jacksonville Center
Sun 04:45:16 PM 29.9489 -82.6911 360° North 455 524 34,100 850 Climbing Jacksonville Center
Sun 04:46:16 PM 30.0681 -82.6861 North 455 524 34,900 550 Climbing Jacksonville Center
Sun 04:47:16 PM 30.1933 -82.6858 360° North 455 524 35,200 600 Climbing Jacksonville Center
Sun 04:48:16 PM 30.3206 -82.6856 360° North 455 524 36,100 900 Climbing Jacksonville Center
Sun 04:49:16 PM 30.4439 -82.6831 North 455 524 37,000 400 Climbing Jacksonville Center
Sun 04:50:16 PM 30.5775 -82.6514 12° North 449 517 36,900 -50 Descending Jacksonville Center
Sun 04:51:16 PM 30.6817 -82.6050 21° North 430 495 36,900  Level Jacksonville Center
Sun 04:52:16 PM 30.7983 -82.5467 23° Northeast 443 510 36,900  Level Jacksonville Center
Sun 04:53:16 PM 30.9172 -82.4883 23° Northeast 448 516 36,900  Level Jacksonville Center
Sun 04:54:16 PM 31.0361 -82.4294 23° Northeast 454 522 36,900  Level Jacksonville Center
Sun 04:55:16 PM 31.1550 -82.3731 22° Northeast 454 522 36,900  Level Jacksonville Center
Sun 04:56:16 PM 31.2758 -82.3142 23° Northeast 454 522 36,900  Level Jacksonville Center
Sun 04:57:16 PM 31.3944 -82.2572 22° Northeast 454 522 36,900 50 Level Jacksonville Center
Sun 04:58:16 PM 31.5111 -82.2028 22° Northeast 454 522 37,000 50 Climbing Jacksonville Center
Sun 04:59:16 PM 31.6361 -82.1336 25° Northeast 454 522 37,000  Level Jacksonville Center
Sun 05:00:16 PM 31.7422 -82.0839 22° Northeast 439 505 37,000  Level Jacksonville Center
Sun 05:01:16 PM 31.8692 -82.0192 23° Northeast 446 513 37,000  Level Jacksonville Center
Sun 05:02:16 PM 31.9897 -81.9617 22° Northeast 455 524 37,000  Level Jacksonville Center
Sun 05:03:16 PM 32.0939 -81.9117 22° Northeast 452 520 37,000  Level Jacksonville Center
Sun 05:04:16 PM 32.2250 -81.8514 21° North 452 520 37,000  Level Jacksonville Center
Sun 05:05:16 PM 32.3433 -81.7958 22° Northeast 452 520 37,000  Level Jacksonville Center
Sun 05:06:16 PM 32.4494 -81.7428 23° Northeast 452 520 37,000  Level Jacksonville Center
Sun 05:07:16 PM 32.5803 -81.6819 21° North 452 520 37,000  Level Jacksonville Center
Sun 05:08:16 PM 32.6842 -81.6314 22° Northeast 452 520 37,000 -50 Level Jacksonville Center
Sun 05:09:16 PM 32.8028 -81.5728 23° Northeast 452 520 36,900 -50 Descending Jacksonville Center
Sun 05:10:16 PM 32.9169 -81.5192 22° Northeast 446 513 36,900  Level Jacksonville Center
Sun 05:11:16 PM 33.0456 -81.4553 23° Northeast 446 513 36,900  Level Jacksonville Center
Sun 05:12:16 PM 33.1553 -81.3817 29° Northeast 446 513 36,900  Level Jacksonville Center
Sun 05:13:16 PM 33.2606 -81.2903 36° Northeast 451 519 36,900  Level Jacksonville Center
Sun 05:14:16 PM 33.3658 -81.1989 36° Northeast 458 527 36,900  Level Jacksonville Center
Sun 05:15:16 PM 33.4731 -81.1072 35° Northeast 469 540 36,900  Level Jacksonville Center
Sun 05:16:16 PM 33.5761 -81.0153 37° Northeast 469 540 36,900 50 Level Jacksonville Center
Sun 05:17:16 PM 33.6853 -80.9233 35° Northeast 469 540 37,000  Climbing Jacksonville Center
Sun 05:18:16 PM 33.7883 -80.8311 37° Northeast 475 547 36,900 -50 Descending Jacksonville Center
Sun 05:19:16 PM 33.8953 -80.7408 35° Northeast 470 541 36,900  Level Jacksonville Center
Sun 05:20:16 PM 34.0000 -80.6481 36° Northeast 470 541 36,900  Level Jacksonville Center
Sun 05:21:16 PM 34.1047 -80.5525 37° Northeast 470 541 36,900  Level Jacksonville Center
Sun 05:22:16 PM 34.2094 -80.4619 36° Northeast 470 541 36,900 50 Level Jacksonville Center
Sun 05:23:16 PM 34.3161 -80.3686 36° Northeast 470 541 37,000  Climbing Jacksonville Center
Sun 05:24:16 PM 34.4206 -80.2722 37° Northeast 470 541 36,900  Descending Jacksonville Center
Sun 05:26:02 PM 34.5869 -80.1175 37° Northeast 476 548 37,000 36 Climbing Washington Center
Sun 05:27:02 PM 34.7078 -80.0106 36° Northeast 481 554 37,000  Level Washington Center
Sun 05:28:00 PM 34.8111 -79.9228 35° Northeast 475 547 37,000  Level Washington Center
Sun 05:29:01 PM 34.9167 -79.8269 37° Northeast 470 541 37,000  Level Washington Center
Sun 05:30:02 PM 35.0244 -79.7336 35° Northeast 470 541 37,000  Level Washington Center
Sun 05:31:00 PM 35.1300 -79.6325 38° Northeast 470 541 37,000  Level Washington Center
Sun 05:32:01 PM 35.2394 -79.5464 33° Northeast 470 541 37,000  Level Washington Center
Sun 05:33:01 PM 35.3528 -79.4656 30° Northeast 465 535 37,000  Level Washington Center
Sun 05:34:02 PM 35.4531 -79.3939 30° Northeast 465 535 37,000  Level Washington Center
Sun 05:35:01 PM 35.5728 -79.3050 31° Northeast 460 529 37,000  Level Washington Center
Sun 05:36:01 PM 35.6836 -79.2258 30° Northeast 460 529 37,000  Level Washington Center
Sun 05:37:02 PM 35.7925 -79.1464 31° Northeast 460 529 37,000  Level Washington Center
Sun 05:38:00 PM 35.9033 -79.0642 31° Northeast 460 529 37,000  Level Washington Center
Sun 05:39:01 PM 36.0142 -78.9817 31° Northeast 460 529 37,000  Level Washington Center
Sun 05:40:02 PM 36.1142 -78.9089 30° Northeast 460 529 37,000  Level Washington Center
Sun 05:41:02 PM 36.2231 -78.8258 32° Northeast 460 529 37,000  Level Washington Center
Sun 05:42:01 PM 36.3358 -78.7428 31° Northeast 460 529 37,000  Level Washington Center
Sun 05:43:01 PM 36.4464 -78.6594 31° Northeast 460 529 37,000  Level Washington Center
Sun 05:44:02 PM 36.5550 -78.5783 31° Northeast 460 529 37,000  Level Washington Center
Sun 05:45:00 PM 36.6653 -78.4972 31° Northeast 460 529 37,000  Level Washington Center
Sun 05:46:01 PM 36.7739 -78.4081 33° Northeast 460 529 37,000  Level Washington Center
Sun 05:47:02 PM 36.8844 -78.3236 31° Northeast 460 529 37,000  Level Washington Center
Sun 05:48:00 PM 36.9969 -78.2367 32° Northeast 460 529 37,000  Level Washington Center
Sun 05:49:00 PM 37.1072 -78.1519 31° Northeast 460 529 37,000  Level Washington Center
Sun 05:50:01 PM 37.2133 -78.0719 31° Northeast 454 522 37,000  Level Washington Center
Sun 05:51:02 PM 37.3256 -77.9842 32° Northeast 464 534 37,000  Level Washington Center
Sun 05:52:00 PM 37.4356 -77.9014 31° Northeast 464 534 37,000  Level Washington Center
Sun 05:53:01 PM 37.5478 -77.8131 32° Northeast 464 534 37,000  Level Washington Center
Sun 05:54:00 PM 37.6519 -77.7164 36° Northeast 464 534 37,000  Level Washington Center
Sun 05:55:00 PM 37.7600 -77.6197 35° Northeast 464 534 37,000  Level Washington Center
Sun 05:56:01 PM 37.8658 -77.5225 36° Northeast 470 541 37,000  Level Washington Center
Sun 05:57:01 PM 37.9736 -77.4225 36° Northeast 470 541 37,000  Level Washington Center
Sun 05:58:02 PM 38.0878 -77.3197 35° Northeast 470 541 37,000  Level Washington Center
Sun 05:59:00 PM 38.1956 -77.2192 36° Northeast 470 541 37,000  Level Washington Center
Sun 06:00:01 PM 38.2928 -77.1286 36° Northeast 475 547 37,000  Level Washington Center
Sun 06:01:02 PM 38.4086 -77.0225 36° Northeast 475 547 37,000  Level Washington Center
Sun 06:02:02 PM 38.5078 -76.9317 36° Northeast 483 556 37,000  Level Washington Center
Sun 06:03:00 PM 38.6236 -76.8219 36° Northeast 483 556 37,000 -202 Level Washington Center
Sun 06:04:01 PM 38.7203 -76.7278 37° Northeast 483 556 36,600 -689 Descending Washington Center
Sun 06:05:02 PM 38.8214 -76.6094 42° Northeast 488 562 35,600 -1,059 Descending Washington Center
Sun 06:06:00 PM 38.9203 -76.4961 42° Northeast 488 562 34,500 -1,714 Descending Washington Center
Sun 06:07:01 PM 39.0211 -76.3797 42° Northeast 488 562 32,200 -1,983 Descending Washington Center
Sun 06:08:01 PM 39.1283 -76.2553 42° Northeast 482 555 30,500 -2,132 Descending Washington Center
Sun 06:09:02 PM 39.2267 -76.1436 41° Northeast 477 549 27,900 -1,815 Descending Washington Center
Sun 06:10:00 PM 39.3211 -76.0342 42° Northeast 471 542 26,900 -508 Descending Washington Center
Sun 06:11:00 PM 39.4131 -75.9219 43° Northeast 454 522 26,900 -1,140 Level Washington Center
Sun 06:12:01 PM 39.5092 -75.8122 41° Northeast 454 522 24,600 -2,066 Descending Washington Center
Sun 06:13:02 PM 39.6011 -75.7019 43° Northeast 447 514 22,700 -1,835 Descending Washington Center
Sun 06:14:02 PM 39.6886 -75.5997 42° Northeast 436 502 20,900 -1,881 Descending Washington Center
Sun 06:15:00 PM 39.7739 -75.4942 44° Northeast 425 489 19,000 -1,815 Descending Washington Center
Sun 06:16:01 PM 39.8572 -75.3969 42° Northeast 413 475 17,300 -1,770 Descending Washington Center
Sun 06:17:02 PM 39.9361 -75.2992 44° Northeast 400 460 15,400 -1,884 Descending Washington Center
Sun 06:18:02 PM 40.0131 -75.2069 43° Northeast 386 444 13,500 -1,655 Descending Washington Center
Sun 06:19:56 PM 40.1500 -75.0333 44° Northeast 332 382 10,600 -1,367 Descending New York TRACON
Sun 06:21:02 PM 40.2167 -74.9500 44° Northeast 306 352 9,400 -1,095 Descending New York TRACON
Sun 06:22:02 PM 40.2833 -74.8833 37° Northeast 296 341 8,300 -1,053 Descending New York TRACON
Sun 06:22:56 PM 40.3333 -74.8000 52° Northeast 290 334 7,400 -1,000 Descending New York TRACON
Sun 06:24:02 PM 40.3833 -74.7167 52° Northeast 291 335 6,300 -700 Descending New York TRACON
Sun 06:24:56 PM 40.4500 -74.6667 30° Northeast 287 330 6,000 -150 Descending New York TRACON
Sun 06:26:02 PM 40.5333 -74.6500 North 285 328 6,000  Level New York TRACON
Sun 06:26:56 PM 40.6000 -74.6167 21° North 280 322 6,000  Level New York TRACON
Sun 06:27:56 PM 40.6667 -74.6000 11° North 238 274 6,000  Level New York TRACON
Sun 06:28:56 PM 40.7333 -74.5833 11° North 238 274 6,000  Level New York TRACON
Sun 06:30:02 PM 40.8000 -74.5667 11° North 239 275 6,000  Level New York TRACON
Sun 06:31:02 PM 40.8667 -74.5333 21° North 241 277 6,000 -50 Level New York TRACON
Sun 06:32:02 PM 40.9167 -74.4833 37° Northeast 245 282 5,900 -368 Descending New York TRACON
Sun 06:32:56 PM 40.9667 -74.4333 37° Northeast 244 281 5,300 -450 Descending New York TRACON
Sun 06:34:02 PM 41.0000 -74.3500 62° Northeast 248 285 5,000 -200 Descending New York TRACON
Sun 06:34:56 PM 40.9833 -74.2833 108° East 234 269 4,900 -450 Descending New York TRACON
Sun 06:36:02 PM 40.9500 -74.2000 118° Southeast 231 266 4,100 -429 Descending New York TRACON
Sun 06:37:02 PM 40.9167 -74.1167 118° Southeast 230 265 4,000 -250 Descending New York TRACON
Sun 06:38:02 PM 40.8833 -74.0667 131° Southeast 199 229 3,600 -526 Descending New York TRACON
Sun 06:38:56 PM 40.8500 -74.0667 180° South 178 205 3,000 -667 Descending New York TRACON

Login

Don't have an account? Register now (free) for customized features, flight alerts, and more!